UAL2174 KSFO-KBUR
Flight info
| Callsign | UAL2174 |
|---|---|
| Flight time | 0h 51m |
| Altitude | 29000 |
| Route | WESLA5 KTINA CISKO RDHOT ROKKR3 |
| Aircraft | A320/M-SDE3FGHIRWY/LB1 |
Departure
| Time | 2026-05-05 04:04 |
|---|---|
| Airport | San Francisco International Airport (KSFO) |
Arrival
| Time | 2026-05-05 04:55 |
|---|---|
| Airport | Hollywood Burbank/Bob Hope Airport (KBUR) |
| Time | Latitude | Longitude | Altitude | Speed | Heading |
|---|---|---|---|---|---|
| 2026-05-05 03:19 | 37.61907 | -122.38628 | 25 ft | 0 kts | 224° |
| 2026-05-05 03:42 | 37.61920 | -122.38612 | 24 ft | 4 kts | 223° |
| 2026-05-05 03:42 | 37.61940 | -122.38590 | 24 ft | 4 kts | 219° |
| 2026-05-05 03:43 | 37.61961 | -122.38569 | 25 ft | 4 kts | 215° |
| 2026-05-05 03:43 | 37.61984 | -122.38550 | 23 ft | 3 kts | 207° |
| 2026-05-05 03:43 | 37.62003 | -122.38539 | 23 ft | 4 kts | 189° |
| 2026-05-05 03:43 | 37.62024 | -122.38543 | 24 ft | 4 kts | 123° |
| 2026-05-05 03:44 | 37.62029 | -122.38572 | 24 ft | 4 kts | 74° |
| 2026-05-05 03:44 | 37.62018 | -122.38596 | 24 ft | 2 kts | 27° |
| 2026-05-05 03:44 | 37.62017 | -122.38597 | 24 ft | 0 kts | 26° |
| 2026-05-05 03:52 | 37.62019 | -122.38596 | 24 ft | 1 kts | 26° |
| 2026-05-05 03:52 | 37.62030 | -122.38589 | 24 ft | 2 kts | 26° |
| 2026-05-05 03:52 | 37.62041 | -122.38582 | 22 ft | 1 kts | 27° |
| 2026-05-05 03:52 | 37.62047 | -122.38578 | 23 ft | 0 kts | 27° |
| 2026-05-05 03:54 | 37.62050 | -122.38576 | 22 ft | 2 kts | 27° |
| 2026-05-05 03:54 | 37.62072 | -122.38560 | 22 ft | 5 kts | 34° |
| 2026-05-05 03:54 | 37.62090 | -122.38506 | 22 ft | 8 kts | 97° |
| 2026-05-05 03:55 | 37.62063 | -122.38434 | 22 ft | 10 kts | 118° |
| 2026-05-05 03:55 | 37.62027 | -122.38348 | 22 ft | 12 kts | 118° |
| 2026-05-05 03:55 | 37.61985 | -122.38249 | 22 ft | 14 kts | 118° |
| 2026-05-05 03:55 | 37.61937 | -122.38134 | 22 ft | 16 kts | 118° |
| 2026-05-05 03:56 | 37.61884 | -122.38008 | 22 ft | 15 kts | 117° |
| 2026-05-05 03:56 | 37.61838 | -122.37896 | 22 ft | 13 kts | 115° |
| 2026-05-05 03:56 | 37.61809 | -122.37798 | 22 ft | 10 kts | 109° |
| 2026-05-05 03:56 | 37.61782 | -122.37704 | 23 ft | 12 kts | 110° |
| 2026-05-05 03:57 | 37.61754 | -122.37616 | 22 ft | 9 kts | 113° |
| 2026-05-05 03:57 | 37.61741 | -122.37579 | 22 ft | 0 kts | 113° |
| 2026-05-05 03:57 | 37.61738 | -122.37569 | 22 ft | 3 kts | 113° |
| 2026-05-05 03:57 | 37.61726 | -122.37533 | 22 ft | 6 kts | 113° |
| 2026-05-05 03:58 | 37.61709 | -122.37487 | 22 ft | 7 kts | 117° |
| 2026-05-05 03:58 | 37.61683 | -122.37425 | 22 ft | 9 kts | 118° |
| 2026-05-05 03:58 | 37.61650 | -122.37346 | 24 ft | 11 kts | 118° |
| 2026-05-05 03:58 | 37.61610 | -122.37253 | 22 ft | 13 kts | 118° |
| 2026-05-05 03:59 | 37.61567 | -122.37148 | 22 ft | 13 kts | 117° |
| 2026-05-05 03:59 | 37.61525 | -122.37048 | 22 ft | 13 kts | 117° |
| 2026-05-05 03:59 | 37.61488 | -122.36962 | 22 ft | 12 kts | 121° |
| 2026-05-05 03:59 | 37.61432 | -122.36877 | 22 ft | 13 kts | 133° |
| 2026-05-05 04:00 | 37.61367 | -122.36781 | 23 ft | 15 kts | 124° |
| 2026-05-05 04:00 | 37.61313 | -122.36655 | 22 ft | 17 kts | 117° |
| 2026-05-05 04:00 | 37.61254 | -122.36514 | 22 ft | 19 kts | 118° |
| 2026-05-05 04:00 | 37.61193 | -122.36369 | 23 ft | 15 kts | 118° |
| 2026-05-05 04:01 | 37.61140 | -122.36246 | 17 ft | 17 kts | 118° |
| 2026-05-05 04:01 | 37.61089 | -122.36125 | 22 ft | 16 kts | 118° |
| 2026-05-05 04:01 | 37.61051 | -122.36026 | 22 ft | 13 kts | 105° |
| 2026-05-05 04:01 | 37.61069 | -122.35930 | 23 ft | 11 kts | 51° |
| 2026-05-05 04:02 | 37.61098 | -122.35905 | 23 ft | 0 kts | 24° |
| 2026-05-05 04:02 | 37.61106 | -122.35900 | 22 ft | 5 kts | 24° |
| 2026-05-05 04:02 | 37.61173 | -122.35882 | 22 ft | 12 kts | 348° |
| 2026-05-05 04:02 | 37.61213 | -122.35939 | 22 ft | 10 kts | 297° |
| 2026-05-05 04:03 | 37.61298 | -122.36140 | 22 ft | 57 kts | 298° |
| 2026-05-05 04:03 | 37.61587 | -122.36826 | 23 ft | 117 kts | 298° |
| 2026-05-05 04:03 | 37.62043 | -122.37910 | 39 ft | 160 kts | 297° |
| 2026-05-05 04:03 | 37.62564 | -122.39179 | 550 ft | 166 kts | 297° |
| 2026-05-05 04:04 | 37.63117 | -122.40491 | 1235 ft | 170 kts | 298° |
| 2026-05-05 04:04 | 37.63693 | -122.41790 | 1940 ft | 172 kts | 300° |
| 2026-05-05 04:04 | 37.64316 | -122.43186 | 2256 ft | 193 kts | 299° |
| 2026-05-05 04:04 | 37.65001 | -122.44728 | 2516 ft | 217 kts | 298° |
| 2026-05-05 04:05 | 37.65762 | -122.46451 | 3150 ft | 225 kts | 298° |
| 2026-05-05 04:05 | 37.66526 | -122.48210 | 3929 ft | 232 kts | 295° |
| 2026-05-05 04:05 | 37.66933 | -122.50234 | 4382 ft | 251 kts | 263° |
| 2026-05-05 04:05 | 37.66255 | -122.52260 | 5041 ft | 258 kts | 226° |
| 2026-05-05 04:06 | 37.64707 | -122.53392 | 5797 ft | 264 kts | 191° |
| 2026-05-05 04:06 | 37.62861 | -122.53239 | 6534 ft | 272 kts | 163° |
| 2026-05-05 04:06 | 37.61074 | -122.52389 | 7311 ft | 277 kts | 156° |
| 2026-05-05 04:06 | 37.59290 | -122.51392 | 8073 ft | 282 kts | 155° |
| 2026-05-05 04:07 | 37.57493 | -122.50382 | 8925 ft | 285 kts | 154° |
| 2026-05-05 04:07 | 37.56282 | -122.49713 | 9407 ft | 290 kts | 156° |
| 2026-05-05 04:07 | 37.53680 | -122.48666 | 10310 ft | 301 kts | 163° |
| 2026-05-05 04:07 | 37.51570 | -122.48020 | 10512 ft | 324 kts | 165° |
| 2026-05-05 04:08 | 37.50109 | -122.47470 | 10622 ft | 337 kts | 157° |
| 2026-05-05 04:08 | 37.47372 | -122.45503 | 11265 ft | 346 kts | 138° |
| 2026-05-05 04:08 | 37.45597 | -122.43435 | 11918 ft | 349 kts | 134° |
| 2026-05-05 04:08 | 37.43843 | -122.41309 | 12607 ft | 352 kts | 133° |
| 2026-05-05 04:09 | 37.42650 | -122.39854 | 13083 ft | 354 kts | 133° |
| 2026-05-05 04:09 | 37.40875 | -122.37687 | 13764 ft | 358 kts | 133° |
| 2026-05-05 04:09 | 37.39078 | -122.35499 | 14378 ft | 361 kts | 133° |
| 2026-05-05 04:09 | 37.37284 | -122.33321 | 14990 ft | 363 kts | 133° |
| 2026-05-05 04:10 | 37.35458 | -122.31116 | 15606 ft | 365 kts | 133° |
| 2026-05-05 04:10 | 37.33619 | -122.28901 | 16204 ft | 367 kts | 133° |
| 2026-05-05 04:10 | 37.31767 | -122.26675 | 16811 ft | 370 kts | 133° |
| 2026-05-05 04:10 | 37.29902 | -122.24432 | 17417 ft | 372 kts | 132° |
| 2026-05-05 04:11 | 37.28031 | -122.22181 | 18061 ft | 374 kts | 132° |
| 2026-05-05 04:11 | 37.26146 | -122.19920 | 18664 ft | 376 kts | 132° |
| 2026-05-05 04:11 | 37.24250 | -122.17650 | 19225 ft | 378 kts | 132° |
| 2026-05-05 04:11 | 37.22338 | -122.15361 | 19788 ft | 381 kts | 131° |
| 2026-05-05 04:12 | 37.20416 | -122.13057 | 20356 ft | 383 kts | 131° |
| 2026-05-05 04:12 | 37.18481 | -122.10738 | 20897 ft | 386 kts | 131° |
| 2026-05-05 04:12 | 37.16534 | -122.08402 | 21449 ft | 389 kts | 131° |
| 2026-05-05 04:12 | 37.14572 | -122.06052 | 21982 ft | 391 kts | 131° |
| 2026-05-05 04:13 | 37.12598 | -122.03691 | 22513 ft | 393 kts | 131° |
| 2026-05-05 04:13 | 37.10610 | -122.01319 | 23016 ft | 396 kts | 131° |
| 2026-05-05 04:13 | 37.08606 | -121.98931 | 23499 ft | 399 kts | 130° |
| 2026-05-05 04:13 | 37.06588 | -121.96529 | 23935 ft | 401 kts | 130° |
| 2026-05-05 04:14 | 37.04560 | -121.94116 | 24357 ft | 403 kts | 130° |
| 2026-05-05 04:14 | 37.02524 | -121.91697 | 24783 ft | 404 kts | 130° |
| 2026-05-05 04:14 | 37.00481 | -121.89270 | 25200 ft | 406 kts | 130° |
| 2026-05-05 04:14 | 36.98458 | -121.86868 | 25600 ft | 407 kts | 130° |
| 2026-05-05 04:15 | 36.96404 | -121.84428 | 26092 ft | 406 kts | 130° |
| 2026-05-05 04:15 | 36.94355 | -121.81993 | 26529 ft | 407 kts | 130° |
| 2026-05-05 04:15 | 36.92303 | -121.79554 | 26943 ft | 408 kts | 130° |
| 2026-05-05 04:15 | 36.90246 | -121.77114 | 27381 ft | 408 kts | 130° |
| 2026-05-05 04:16 | 36.88187 | -121.74673 | 27779 ft | 409 kts | 129° |
| 2026-05-05 04:16 | 36.86122 | -121.72226 | 28162 ft | 410 kts | 129° |
| 2026-05-05 04:16 | 36.84043 | -121.69768 | 28552 ft | 412 kts | 129° |
| 2026-05-05 04:16 | 36.81957 | -121.67308 | 28929 ft | 413 kts | 130° |
| 2026-05-05 04:17 | 36.79867 | -121.64851 | 29052 ft | 409 kts | 130° |
| 2026-05-05 04:17 | 36.77807 | -121.62434 | 29064 ft | 404 kts | 129° |
| 2026-05-05 04:17 | 36.73742 | -121.57650 | 29062 ft | 401 kts | 129° |
| 2026-05-05 04:18 | 36.69687 | -121.52868 | 29064 ft | 401 kts | 129° |
| 2026-05-05 04:18 | 36.65636 | -121.48097 | 29065 ft | 402 kts | 130° |
| 2026-05-05 04:19 | 36.61555 | -121.43307 | 29065 ft | 404 kts | 130° |
| 2026-05-05 04:19 | 36.57445 | -121.38517 | 29068 ft | 405 kts | 130° |
| 2026-05-05 04:20 | 36.53364 | -121.33760 | 29074 ft | 405 kts | 130° |
| 2026-05-05 04:20 | 36.49243 | -121.28946 | 29060 ft | 412 kts | 132° |
| 2026-05-05 04:21 | 36.45034 | -121.24022 | 29052 ft | 417 kts | 131° |
| 2026-05-05 04:21 | 36.40808 | -121.19110 | 29062 ft | 415 kts | 131° |
| 2026-05-05 04:22 | 36.36545 | -121.14267 | 29057 ft | 416 kts | 134° |
| 2026-05-05 04:22 | 36.32083 | -121.09673 | 29054 ft | 417 kts | 136° |
| 2026-05-05 04:23 | 36.27561 | -121.05158 | 29051 ft | 417 kts | 136° |
| 2026-05-05 04:23 | 36.23066 | -121.00615 | 29047 ft | 417 kts | 135° |
| 2026-05-05 04:24 | 36.18627 | -120.96065 | 29063 ft | 417 kts | 136° |
| 2026-05-05 04:25 | 36.11892 | -120.89173 | 29018 ft | 420 kts | 136° |
| 2026-05-05 04:25 | 36.07380 | -120.84575 | 29020 ft | 421 kts | 136° |
| 2026-05-05 04:26 | 36.02851 | -120.79970 | 29027 ft | 422 kts | 136° |
| 2026-05-05 04:26 | 35.98308 | -120.75358 | 29024 ft | 424 kts | 139° |
| 2026-05-05 04:27 | 35.93741 | -120.70729 | 29019 ft | 426 kts | 139° |
| 2026-05-05 04:27 | 35.89153 | -120.66091 | 29025 ft | 427 kts | 139° |
| 2026-05-05 04:28 | 35.84553 | -120.61449 | 29056 ft | 428 kts | 140° |
| 2026-05-05 04:28 | 35.79945 | -120.56789 | 29050 ft | 429 kts | 140° |
| 2026-05-05 04:29 | 35.75319 | -120.52119 | 29052 ft | 430 kts | 140° |
| 2026-05-05 04:29 | 35.70680 | -120.47456 | 29055 ft | 431 kts | 140° |
| 2026-05-05 04:30 | 35.66060 | -120.42821 | 29056 ft | 432 kts | 142° |
| 2026-05-05 04:30 | 35.61402 | -120.38156 | 29037 ft | 432 kts | 142° |
| 2026-05-05 04:31 | 35.56748 | -120.33468 | 29048 ft | 433 kts | 142° |
| 2026-05-05 04:31 | 35.52160 | -120.28672 | 29048 ft | 433 kts | 140° |
| 2026-05-05 04:32 | 35.47588 | -120.23847 | 29045 ft | 434 kts | 141° |
| 2026-05-05 04:32 | 35.42992 | -120.19037 | 29053 ft | 434 kts | 142° |
| 2026-05-05 04:33 | 35.38381 | -120.14254 | 29051 ft | 434 kts | 142° |
| 2026-05-05 04:33 | 35.33766 | -120.09472 | 29040 ft | 434 kts | 143° |
| 2026-05-05 04:34 | 35.29187 | -120.04723 | 29044 ft | 434 kts | 143° |
| 2026-05-05 04:34 | 35.24574 | -119.99951 | 29055 ft | 434 kts | 143° |
| 2026-05-05 04:35 | 35.19971 | -119.95197 | 28874 ft | 430 kts | 143° |
| 2026-05-05 04:35 | 35.17699 | -119.92843 | 28586 ft | 426 kts | 143° |
| 2026-05-05 04:35 | 35.15439 | -119.90507 | 28309 ft | 423 kts | 144° |
| 2026-05-05 04:35 | 35.13199 | -119.88201 | 27788 ft | 418 kts | 144° |
| 2026-05-05 04:36 | 35.10989 | -119.85925 | 27253 ft | 415 kts | 144° |
| 2026-05-05 04:36 | 35.08819 | -119.83692 | 26749 ft | 412 kts | 144° |
| 2026-05-05 04:36 | 35.06632 | -119.81445 | 26215 ft | 409 kts | 144° |
| 2026-05-05 04:36 | 35.04462 | -119.79219 | 25723 ft | 406 kts | 144° |
| 2026-05-05 04:37 | 35.02305 | -119.77008 | 25244 ft | 404 kts | 144° |
| 2026-05-05 04:37 | 35.00155 | -119.74804 | 24759 ft | 402 kts | 144° |
| 2026-05-05 04:37 | 34.98020 | -119.72615 | 24304 ft | 400 kts | 144° |
| 2026-05-05 04:37 | 34.95889 | -119.70434 | 23835 ft | 399 kts | 144° |
| 2026-05-05 04:38 | 34.93772 | -119.68260 | 23355 ft | 397 kts | 143° |
| 2026-05-05 04:38 | 34.91667 | -119.66103 | 22898 ft | 394 kts | 143° |
| 2026-05-05 04:38 | 34.89577 | -119.63967 | 22453 ft | 391 kts | 143° |
| 2026-05-05 04:38 | 34.87541 | -119.61789 | 22006 ft | 390 kts | 138° |
| 2026-05-05 04:39 | 34.85767 | -119.59287 | 21489 ft | 391 kts | 132° |
| 2026-05-05 04:39 | 34.84051 | -119.56729 | 20974 ft | 389 kts | 132° |
| 2026-05-05 04:39 | 34.82348 | -119.54188 | 20534 ft | 386 kts | 133° |
| 2026-05-05 04:39 | 34.80653 | -119.51660 | 20081 ft | 383 kts | 133° |
| 2026-05-05 04:40 | 34.78966 | -119.49147 | 19564 ft | 382 kts | 133° |
| 2026-05-05 04:40 | 34.77299 | -119.46667 | 19162 ft | 376 kts | 133° |
| 2026-05-05 04:40 | 34.75652 | -119.44196 | 18656 ft | 375 kts | 132° |
| 2026-05-05 04:40 | 34.74026 | -119.41722 | 18135 ft | 373 kts | 131° |
| 2026-05-05 04:41 | 34.72416 | -119.39258 | 17573 ft | 371 kts | 131° |
| 2026-05-05 04:41 | 34.70822 | -119.36807 | 17038 ft | 369 kts | 131° |
| 2026-05-05 04:41 | 34.69235 | -119.34369 | 16616 ft | 365 kts | 131° |
| 2026-05-05 04:41 | 34.67682 | -119.31993 | 16359 ft | 356 kts | 131° |
| 2026-05-05 04:42 | 34.66147 | -119.29653 | 15926 ft | 353 kts | 131° |
| 2026-05-05 04:42 | 34.64624 | -119.27324 | 15472 ft | 352 kts | 129° |
| 2026-05-05 04:42 | 34.63326 | -119.24853 | 15007 ft | 351 kts | 123° |
| 2026-05-05 04:42 | 34.62060 | -119.22278 | 14548 ft | 349 kts | 123° |
| 2026-05-05 04:43 | 34.60831 | -119.19786 | 14140 ft | 348 kts | 123° |
| 2026-05-05 04:43 | 34.59591 | -119.17275 | 13724 ft | 345 kts | 123° |
| 2026-05-05 04:43 | 34.58360 | -119.14786 | 13276 ft | 343 kts | 123° |
| 2026-05-05 04:43 | 34.57164 | -119.12297 | 12812 ft | 338 kts | 118° |
| 2026-05-05 04:44 | 34.56290 | -119.09675 | 12290 ft | 330 kts | 111° |
| 2026-05-05 04:44 | 34.55476 | -119.07158 | 12072 ft | 313 kts | 118° |
| 2026-05-05 04:44 | 34.54303 | -119.04991 | 11675 ft | 303 kts | 133° |
| 2026-05-05 04:44 | 34.52771 | -119.03292 | 11428 ft | 297 kts | 146° |
| 2026-05-05 04:45 | 34.51059 | -119.01890 | 11220 ft | 297 kts | 147° |
| 2026-05-05 04:45 | 34.49342 | -119.00489 | 10917 ft | 297 kts | 147° |
| 2026-05-05 04:45 | 34.47634 | -118.99092 | 10593 ft | 295 kts | 147° |
| 2026-05-05 04:45 | 34.45937 | -118.97704 | 10259 ft | 293 kts | 147° |
| 2026-05-05 04:46 | 34.44245 | -118.96326 | 9936 ft | 292 kts | 146° |
| 2026-05-05 04:46 | 34.42558 | -118.94961 | 9560 ft | 291 kts | 147° |
| 2026-05-05 04:46 | 34.40874 | -118.93603 | 9186 ft | 290 kts | 147° |
| 2026-05-05 04:46 | 34.39197 | -118.92250 | 8820 ft | 289 kts | 147° |
| 2026-05-05 04:47 | 34.37529 | -118.90897 | 8457 ft | 288 kts | 146° |
| 2026-05-05 04:47 | 34.36008 | -118.89324 | 8141 ft | 285 kts | 139° |
| 2026-05-05 04:47 | 34.34554 | -118.87717 | 8030 ft | 281 kts | 139° |
| 2026-05-05 04:47 | 34.33127 | -118.86151 | 7891 ft | 272 kts | 140° |
| 2026-05-05 04:48 | 34.31749 | -118.84644 | 7764 ft | 264 kts | 140° |
| 2026-05-05 04:48 | 34.30404 | -118.83174 | 7635 ft | 258 kts | 140° |
| 2026-05-05 04:48 | 34.29091 | -118.81741 | 7506 ft | 257 kts | 140° |
| 2026-05-05 04:48 | 34.27791 | -118.80262 | 7261 ft | 256 kts | 133° |
| 2026-05-05 04:49 | 34.26776 | -118.78512 | 7054 ft | 254 kts | 118° |
| 2026-05-05 04:49 | 34.26140 | -118.76515 | 6971 ft | 258 kts | 107° |
| 2026-05-05 04:49 | 34.25662 | -118.74372 | 6436 ft | 270 kts | 107° |
| 2026-05-05 04:49 | 34.25167 | -118.72173 | 6010 ft | 270 kts | 107° |
| 2026-05-05 04:50 | 34.24684 | -118.70030 | 5697 ft | 259 kts | 107° |
| 2026-05-05 04:50 | 34.24223 | -118.67979 | 5398 ft | 247 kts | 107° |
| 2026-05-05 04:50 | 34.23785 | -118.66022 | 5121 ft | 236 kts | 107° |
| 2026-05-05 04:50 | 34.23364 | -118.64144 | 4861 ft | 229 kts | 107° |
| 2026-05-05 04:51 | 34.22947 | -118.62289 | 4590 ft | 228 kts | 107° |
| 2026-05-05 04:51 | 34.22540 | -118.60479 | 4326 ft | 217 kts | 107° |
| 2026-05-05 04:51 | 34.22147 | -118.58731 | 4086 ft | 215 kts | 107° |
| 2026-05-05 04:51 | 34.21757 | -118.56994 | 3844 ft | 213 kts | 107° |
| 2026-05-05 04:52 | 34.21371 | -118.55284 | 3595 ft | 210 kts | 107° |
| 2026-05-05 04:52 | 34.20991 | -118.53603 | 3349 ft | 202 kts | 107° |
| 2026-05-05 04:52 | 34.20630 | -118.52006 | 3162 ft | 194 kts | 107° |
| 2026-05-05 04:52 | 34.20277 | -118.50444 | 3066 ft | 191 kts | 107° |
| 2026-05-05 04:53 | 34.19977 | -118.48864 | 2723 ft | 191 kts | 97° |
| 2026-05-05 04:53 | 34.19912 | -118.47250 | 2507 ft | 192 kts | 91° |
| 2026-05-05 04:53 | 34.19890 | -118.45662 | 2165 ft | 184 kts | 91° |
| 2026-05-05 04:53 | 34.19881 | -118.44200 | 1971 ft | 163 kts | 90° |
| 2026-05-05 04:54 | 34.19882 | -118.42875 | 1664 ft | 152 kts | 90° |
| 2026-05-05 04:54 | 34.19879 | -118.41625 | 1472 ft | 146 kts | 93° |
| 2026-05-05 04:54 | 34.19860 | -118.40410 | 1320 ft | 144 kts | 93° |
| 2026-05-05 04:54 | 34.19832 | -118.39210 | 1124 ft | 142 kts | 94° |
| 2026-05-05 04:55 | 34.19814 | -118.38023 | 947 ft | 141 kts | 93° |
| 2026-05-05 04:55 | 34.19795 | -118.36841 | 769 ft | 141 kts | 94° |
| 2026-05-05 04:55 | 34.19774 | -118.35748 | 712 ft | 109 kts | 90° |
| 2026-05-05 04:55 | 34.19768 | -118.35231 | 709 ft | 24 kts | 89° |
| 2026-05-05 04:56 | 34.19767 | -118.35129 | 709 ft | 14 kts | 90° |
| 2026-05-05 04:56 | 34.19762 | -118.35034 | 701 ft | 8 kts | 114° |
| 2026-05-05 04:56 | 34.19727 | -118.35020 | 704 ft | 3 kts | 204° |
| 2026-05-05 04:56 | 34.19716 | -118.35051 | 708 ft | 5 kts | 264° |
| 2026-05-05 04:57 | 34.19718 | -118.35097 | 708 ft | 6 kts | 270° |
| 2026-05-05 04:57 | 34.19719 | -118.35154 | 712 ft | 7 kts | 271° |
| 2026-05-05 04:57 | 34.19719 | -118.35212 | 709 ft | 7 kts | 270° |
| 2026-05-05 04:57 | 34.19719 | -118.35278 | 710 ft | 9 kts | 270° |
| 2026-05-05 04:58 | 34.19719 | -118.35346 | 711 ft | 6 kts | 271° |
| 2026-05-05 04:58 | 34.19719 | -118.35360 | 711 ft | 1 kts | 271° |
| 2026-05-05 04:58 | 34.19720 | -118.35383 | 711 ft | 4 kts | 271° |
| 2026-05-05 04:58 | 34.19720 | -118.35424 | 711 ft | 6 kts | 271° |
| 2026-05-05 04:59 | 34.19721 | -118.35482 | 711 ft | 7 kts | 271° |
| 2026-05-05 04:59 | 34.19722 | -118.35507 | 713 ft | 2 kts | 272° |
| 2026-05-05 04:59 | 34.19722 | -118.35514 | 714 ft | 0 kts | 270° |
| 2026-05-05 05:01 | 34.19722 | -118.35518 | 713 ft | 3 kts | 270° |
| 2026-05-05 05:02 | 34.19712 | -118.35555 | 711 ft | 6 kts | 223° |
| 2026-05-05 05:02 | 34.19648 | -118.35549 | 700 ft | 12 kts | 167° |
| 2026-05-05 05:02 | 34.19621 | -118.35544 | 702 ft | 5 kts | 179° |
| 2026-05-05 05:02 | 34.19586 | -118.35541 | 700 ft | 3 kts | 163° |
| 2026-05-05 05:03 | 34.19578 | -118.35517 | 701 ft | 3 kts | 91° |
| 2026-05-05 05:03 | 34.19579 | -118.35505 | 705 ft | 1 kts | 85° |
| 2026-05-05 05:03 | 34.19579 | -118.35499 | 706 ft | 0 kts | 94° |
| 2026-05-05 05:03 | 34.19574 | -118.35494 | 705 ft | 2 kts | 135° |
| 2026-05-05 05:04 | 34.19569 | -118.35489 | 715 ft | 1 kts | 136° |
| 2026-05-05 05:04 | 34.19568 | -118.35488 | 715 ft | 0 kts | 136° |